createdAt,value
2022-07-26T00:02:57.548Z,18.44
2022-07-26T00:06:00.589Z,18.50
2022-07-26T00:09:03.867Z,18.51
2022-07-26T00:12:07.222Z,18.43
2022-07-26T00:15:14.518Z,18.42
2022-07-26T00:18:19.026Z,18.38
2022-07-26T00:21:21.974Z,18.25
2022-07-26T00:24:24.903Z,18.37
2022-07-26T00:27:27.704Z,18.44
2022-07-26T00:30:31.097Z,18.27
2022-07-26T00:33:34.000Z,18.15
2022-07-26T00:36:36.918Z,18.14
2022-07-26T00:39:44.467Z,18.12
2022-07-26T00:42:47.483Z,18.08
2022-07-26T00:45:50.701Z,18.02
2022-07-26T00:48:53.948Z,18.13
2022-07-26T00:51:56.669Z,18.18
2022-07-26T00:54:59.736Z,18.47
2022-07-26T00:58:02.702Z,18.26
2022-07-26T01:01:05.785Z,18.33
2022-07-26T01:04:09.029Z,18.26
2022-07-26T01:07:15.523Z,18.17
2022-07-26T01:10:18.425Z,17.96
2022-07-26T01:13:22.278Z,17.92
2022-07-26T01:16:25.674Z,17.88
2022-07-26T01:19:28.795Z,17.82
2022-07-26T01:22:31.462Z,17.81
2022-07-26T01:25:43.054Z,17.83
2022-07-26T01:28:49.351Z,17.81
2022-07-26T01:31:53.272Z,17.78
2022-07-26T01:34:55.961Z,17.76
2022-07-26T01:37:58.856Z,17.74
2022-07-26T01:41:01.886Z,17.71
2022-07-26T01:44:06.730Z,17.75
2022-07-26T01:47:09.660Z,17.68
2022-07-26T01:50:12.816Z,17.63
2022-07-26T01:53:15.467Z,17.65
2022-07-26T01:56:18.382Z,17.55
2022-07-26T01:59:21.390Z,17.50
2022-07-26T02:02:24.927Z,17.57
2022-07-26T02:05:27.972Z,17.44
2022-07-26T02:08:30.659Z,17.40
2022-07-26T02:11:33.778Z,17.48
2022-07-26T02:14:36.705Z,17.41
2022-07-26T02:17:39.712Z,17.39
2022-07-26T02:20:42.422Z,17.26
2022-07-26T02:23:45.313Z,17.22
2022-07-26T02:26:47.918Z,17.15
2022-07-26T02:29:50.999Z,17.09
2022-07-26T02:32:53.674Z,16.92
2022-07-26T02:35:56.614Z,16.88
2022-07-26T02:38:59.481Z,16.92
2022-07-26T02:42:03.624Z,17.06
2022-07-26T02:45:06.778Z,17.08
2022-07-26T02:48:09.772Z,16.81
2022-07-26T02:51:12.407Z,17.00
2022-07-26T02:54:15.419Z,16.96
2022-07-26T02:57:18.051Z,16.93
2022-07-26T03:00:23.686Z,16.89
2022-07-26T03:03:26.428Z,16.84
2022-07-26T03:06:29.493Z,16.80
2022-07-26T03:09:32.159Z,16.93
2022-07-26T03:12:35.094Z,16.93
2022-07-26T03:15:37.735Z,16.88
2022-07-26T03:18:40.679Z,16.76
2022-07-26T03:21:43.308Z,16.78
2022-07-26T03:24:46.242Z,16.85
2022-07-26T03:27:48.857Z,17.02
2022-07-26T03:30:51.887Z,17.06
2022-07-26T03:33:57.442Z,17.23
2022-07-26T03:37:04.310Z,17.48
2022-07-26T03:40:08.908Z,17.68
2022-07-26T03:43:12.063Z,17.43
2022-07-26T03:46:14.665Z,17.26
2022-07-26T03:49:17.680Z,17.22
2022-07-26T03:52:20.332Z,17.17
2022-07-26T03:55:41.741Z,17.32
2022-07-26T03:58:44.540Z,17.50
2022-07-26T04:01:48.167Z,17.75
2022-07-26T04:04:51.153Z,17.97
2022-07-26T04:07:53.969Z,17.93
2022-07-26T04:10:56.980Z,18.38
2022-07-26T04:14:00.490Z,18.37
2022-07-26T04:17:03.459Z,18.41
2022-07-26T04:20:07.876Z,18.64
2022-07-26T04:23:12.305Z,18.80
2022-07-26T04:26:15.328Z,18.94
2022-07-26T04:29:18.307Z,18.82
2022-07-26T04:32:21.273Z,18.80
2022-07-26T04:35:24.235Z,18.82
2022-07-26T04:38:26.881Z,19.21
2022-07-26T04:41:30.870Z,19.54
2022-07-26T04:44:33.842Z,19.82
2022-07-26T04:47:36.999Z,20.07
2022-07-26T04:50:39.950Z,20.24
2022-07-26T04:53:42.888Z,20.30
2022-07-26T04:56:45.468Z,20.44
2022-07-26T05:00:03.374Z,20.70
2022-07-26T05:03:11.166Z,21.03
2022-07-26T05:06:14.190Z,21.23
2022-07-26T05:09:17.625Z,21.67
2022-07-26T05:12:20.976Z,21.99
2022-07-26T05:15:24.144Z,22.63
2022-07-26T05:18:29.283Z,23.14
2022-07-26T05:21:34.130Z,23.68
2022-07-26T05:24:37.046Z,24.05
2022-07-26T05:27:41.700Z,24.36
2022-07-26T05:30:44.980Z,24.67
2022-07-26T05:33:47.887Z,24.62
2022-07-26T05:36:51.297Z,24.94
2022-07-26T05:39:53.969Z,24.92
2022-07-26T05:42:57.209Z,25.15
2022-07-26T05:46:00.007Z,25.23
2022-07-26T05:49:04.589Z,25.34
2022-07-26T05:52:10.472Z,25.37
2022-07-26T05:55:13.683Z,25.48
2022-07-26T05:58:16.401Z,25.79
2022-07-26T06:01:19.502Z,26.00
2022-07-26T06:04:23.656Z,25.75
2022-07-26T06:07:28.686Z,25.49
2022-07-26T06:10:31.613Z,25.89
2022-07-26T06:13:35.619Z,26.25
2022-07-26T06:16:38.591Z,26.08
2022-07-26T06:19:47.081Z,26.35
2022-07-26T06:22:51.746Z,26.35
2022-07-26T06:25:54.415Z,26.45
2022-07-26T06:28:57.418Z,26.81
2022-07-26T06:32:00.428Z,26.80
2022-07-26T06:35:03.823Z,26.85
2022-07-26T06:38:07.323Z,26.97
2022-07-26T06:41:16.198Z,26.94
2022-07-26T06:44:18.888Z,27.11
2022-07-26T06:47:21.981Z,27.32
2022-07-26T06:50:25.377Z,27.20
2022-07-26T06:53:28.714Z,26.78
2022-07-26T06:56:32.534Z,26.73
2022-07-26T06:59:35.954Z,27.00
2022-07-26T07:02:38.668Z,27.18
2022-07-26T07:05:45.355Z,26.94
2022-07-26T07:08:52.238Z,27.15
2022-07-26T07:12:03.380Z,26.99
2022-07-26T07:15:12.480Z,26.73
2022-07-26T07:18:15.490Z,26.34
2022-07-26T07:21:18.203Z,26.15
2022-07-26T07:24:21.582Z,26.03
2022-07-26T07:27:25.231Z,25.92
2022-07-26T07:30:31.128Z,26.06
2022-07-26T07:33:43.553Z,25.83
2022-07-26T07:36:55.915Z,26.93
2022-07-26T07:40:00.518Z,27.32
2022-07-26T07:43:03.977Z,28.04
2022-07-26T07:46:06.931Z,28.18
2022-07-26T07:49:11.518Z,28.47
2022-07-26T07:52:14.472Z,28.86
2022-07-26T07:55:36.451Z,28.44
2022-07-26T07:58:41.433Z,28.44
2022-07-26T08:01:45.112Z,28.16
2022-07-26T08:04:48.299Z,28.43
2022-07-26T08:07:52.848Z,28.80
2022-07-26T08:10:55.796Z,29.21
2022-07-26T08:13:59.425Z,29.51
2022-07-26T08:17:02.507Z,28.87
2022-07-26T08:20:06.208Z,29.12
2022-07-26T08:23:12.050Z,29.22
2022-07-26T08:26:14.695Z,28.87
2022-07-26T08:29:17.690Z,29.05
2022-07-26T08:32:20.777Z,29.21
2022-07-26T08:35:24.494Z,29.06
2022-07-26T08:38:27.249Z,29.42
2022-07-26T08:41:31.151Z,29.64
2022-07-26T08:44:34.282Z,29.62
2022-07-26T08:47:50.307Z,29.52
2022-07-26T08:51:01.610Z,29.53
2022-07-26T08:54:06.043Z,30.13
2022-07-26T08:57:08.986Z,29.74
2022-07-26T09:00:15.162Z,29.67
2022-07-26T09:03:25.769Z,29.38
2022-07-26T09:06:28.776Z,29.32
2022-07-26T09:09:55.553Z,29.44
2022-07-26T09:12:58.610Z,28.80
2022-07-26T09:16:11.481Z,28.01
2022-07-26T09:19:22.763Z,27.61
2022-07-26T09:22:25.702Z,27.22
2022-07-26T09:25:34.902Z,26.91
2022-07-26T09:28:37.653Z,26.42
2022-07-26T09:31:48.231Z,26.16
2022-07-26T09:34:53.471Z,26.04
2022-07-26T09:37:57.899Z,26.00
2022-07-26T09:41:00.680Z,25.90
2022-07-26T09:44:06.662Z,25.72
2022-07-26T09:47:09.542Z,25.43
2022-07-26T09:50:18.548Z,25.56
2022-07-26T09:53:22.859Z,25.15
2022-07-26T09:56:41.165Z,24.65
2022-07-26T09:59:44.785Z,24.27
2022-07-26T10:02:47.834Z,24.14
2022-07-26T10:05:51.039Z,23.90
2022-07-26T10:08:53.859Z,23.71
2022-07-26T10:12:03.397Z,23.40
2022-07-26T10:15:06.671Z,23.10
2022-07-26T10:18:16.602Z,22.69
2022-07-26T10:21:32.589Z,22.18
2022-07-26T10:24:35.596Z,22.17
2022-07-26T10:27:41.249Z,21.96
2022-07-26T10:30:44.600Z,21.89
2022-07-26T10:33:51.883Z,22.27
2022-07-26T10:36:59.944Z,22.36
2022-07-26T10:40:17.957Z,22.44
2022-07-26T10:43:40.074Z,22.50
2022-07-26T10:47:01.184Z,22.33
2022-07-26T10:50:05.716Z,22.26
2022-07-26T10:53:11.518Z,22.55
2022-07-26T10:56:14.468Z,22.43
2022-07-26T10:59:54.333Z,22.34
2022-07-26T11:02:57.993Z,22.71
2022-07-26T11:06:09.656Z,22.99
2022-07-26T11:09:13.346Z,23.35
2022-07-26T11:12:20.325Z,23.72
2022-07-26T11:15:23.296Z,24.03
2022-07-26T11:18:30.742Z,24.34
2022-07-26T11:21:33.881Z,24.48
2022-07-26T11:24:41.193Z,24.63
2022-07-26T11:27:59.584Z,24.50
2022-07-26T11:31:05.025Z,24.55
2022-07-26T11:34:19.288Z,24.69
2022-07-26T11:37:21.987Z,24.69
2022-07-26T11:40:47.583Z,25.53
2022-07-26T11:43:51.628Z,25.71
2022-07-26T11:46:57.986Z,25.51
2022-07-26T11:50:23.325Z,25.63
2022-07-26T11:53:29.360Z,26.14
2022-07-26T11:56:32.628Z,26.68
2022-07-26T11:59:37.829Z,26.26
2022-07-26T12:02:40.632Z,26.00
2022-07-26T12:05:44.190Z,25.81
2022-07-26T12:08:56.166Z,25.72
2022-07-26T12:12:00.400Z,25.75
2022-07-26T12:15:05.736Z,26.00
2022-07-26T12:18:10.609Z,26.25
2022-07-26T12:21:13.287Z,26.60
2022-07-26T12:24:40.673Z,26.15
2022-07-26T12:27:47.455Z,25.81
2022-07-26T12:30:50.456Z,24.96
2022-07-26T12:33:53.287Z,25.06
2022-07-26T12:37:09.355Z,25.11
2022-07-26T12:40:16.692Z,25.25
2022-07-26T12:43:19.652Z,25.05
2022-07-26T12:46:22.453Z,25.41
2022-07-26T12:49:25.534Z,25.33
2022-07-26T12:52:28.396Z,25.31
2022-07-26T12:55:32.061Z,25.18
2022-07-26T12:58:35.006Z,24.91
2022-07-26T13:01:38.102Z,24.93
2022-07-26T13:04:40.977Z,24.66
2022-07-26T13:07:44.155Z,24.63
2022-07-26T13:10:46.896Z,24.67
2022-07-26T13:13:49.929Z,24.43
2022-07-26T13:16:52.627Z,24.44
2022-07-26T13:19:55.701Z,24.43
2022-07-26T13:22:58.359Z,24.33
2022-07-26T13:26:01.468Z,24.50
2022-07-26T13:29:06.243Z,24.68
2022-07-26T13:32:09.921Z,24.98
2022-07-26T13:35:12.595Z,25.06
2022-07-26T13:38:16.390Z,25.59
2022-07-26T13:41:19.111Z,25.84
2022-07-26T13:44:22.919Z,25.95
2022-07-26T13:47:25.543Z,26.08
2022-07-26T13:50:28.720Z,26.03
2022-07-26T13:53:31.503Z,25.89
2022-07-26T13:56:34.434Z,25.60
2022-07-26T13:59:37.148Z,25.58
2022-07-26T14:02:40.114Z,25.48
2022-07-26T14:05:46.006Z,25.40
2022-07-26T14:08:48.820Z,25.21
2022-07-26T14:11:51.904Z,25.30
2022-07-26T14:14:54.558Z,25.23
2022-07-26T14:17:57.625Z,25.18
2022-07-26T14:21:07.347Z,25.26
2022-07-26T14:24:13.700Z,25.40
2022-07-26T14:27:16.549Z,25.43
2022-07-26T14:30:20.858Z,25.19
2022-07-26T14:33:23.645Z,25.23
2022-07-26T14:36:26.846Z,25.03
2022-07-26T14:39:29.515Z,24.85
2022-07-26T14:42:32.620Z,25.05
2022-07-26T14:45:35.359Z,25.15
2022-07-26T14:48:53.988Z,24.88
2022-07-26T14:51:57.618Z,24.82
2022-07-26T14:55:00.606Z,24.85
2022-07-26T14:58:03.345Z,24.72
2022-07-26T15:01:06.352Z,24.75
2022-07-26T15:04:09.880Z,24.68
2022-07-26T15:07:13.107Z,24.71
2022-07-26T15:10:16.161Z,24.69
2022-07-26T15:13:19.629Z,24.79
2022-07-26T15:16:22.402Z,24.99
2022-07-26T15:19:25.956Z,25.08
2022-07-26T15:22:28.747Z,25.12
2022-07-26T15:25:31.768Z,25.03
2022-07-26T15:28:34.816Z,25.01
2022-07-26T15:31:38.061Z,24.99
2022-07-26T15:34:40.775Z,25.12
2022-07-26T15:37:44.217Z,25.23
2022-07-26T15:40:48.173Z,25.17
2022-07-26T15:43:54.142Z,25.13
2022-07-26T15:46:57.555Z,25.10
2022-07-26T15:50:00.977Z,25.05
2022-07-26T15:53:03.839Z,25.18
2022-07-26T15:56:06.804Z,25.08
2022-07-26T15:59:09.911Z,25.08
2022-07-26T16:02:13.734Z,25.17
2022-07-26T16:05:17.060Z,25.17
2022-07-26T16:08:24.755Z,25.22
2022-07-26T16:11:31.333Z,25.11
2022-07-26T16:14:34.221Z,25.13
2022-07-26T16:17:37.495Z,24.96
2022-07-26T16:20:40.373Z,24.95
2022-07-26T16:23:43.385Z,24.97
2022-07-26T16:26:47.708Z,24.92
2022-07-26T16:29:52.420Z,25.02
2022-07-26T16:32:55.427Z,24.90
2022-07-26T16:36:01.687Z,24.97
2022-07-26T16:39:08.933Z,24.91
2022-07-26T16:42:12.301Z,24.87
2022-07-26T16:45:15.129Z,25.10
2022-07-26T16:48:18.286Z,25.02
2022-07-26T16:51:21.143Z,25.10
2022-07-26T16:54:24.503Z,25.22
2022-07-26T16:57:27.497Z,25.32
2022-07-26T17:00:30.829Z,25.49
2022-07-26T17:03:34.035Z,25.19
2022-07-26T17:06:37.269Z,25.11
2022-07-26T17:09:40.030Z,24.96
2022-07-26T17:12:43.016Z,24.68
2022-07-26T17:15:47.830Z,24.57
2022-07-26T17:18:50.853Z,24.41
2022-07-26T17:21:53.627Z,24.20
2022-07-26T17:24:56.638Z,24.16
2022-07-26T17:27:59.580Z,24.05
2022-07-26T17:31:02.813Z,24.03
2022-07-26T17:34:05.653Z,23.88
2022-07-26T17:37:10.019Z,23.87
2022-07-26T17:40:13.119Z,23.73
2022-07-26T17:43:16.461Z,23.65
2022-07-26T17:46:20.203Z,23.59
2022-07-26T17:49:27.124Z,23.58
2022-07-26T17:52:29.846Z,23.54
2022-07-26T17:55:33.978Z,23.54
2022-07-26T17:58:37.953Z,23.54
2022-07-26T18:01:41.040Z,23.43
2022-07-26T18:04:56.608Z,23.31
2022-07-26T18:07:59.768Z,23.31
2022-07-26T18:11:03.793Z,23.22
2022-07-26T18:14:08.098Z,23.11
2022-07-26T18:17:11.150Z,23.09
2022-07-26T18:20:13.919Z,23.01
2022-07-26T18:23:16.882Z,23.03
2022-07-26T18:26:19.921Z,22.92
2022-07-26T18:29:22.959Z,22.87
2022-07-26T18:32:25.830Z,22.80
2022-07-26T18:35:29.044Z,22.79
2022-07-26T18:38:31.827Z,22.70
2022-07-26T18:41:35.161Z,22.67
2022-07-26T18:44:38.447Z,22.78
2022-07-26T18:47:42.025Z,22.65
2022-07-26T18:50:44.754Z,22.61
2022-07-26T18:53:47.754Z,22.52
2022-07-26T18:56:50.513Z,22.52
2022-07-26T18:59:53.731Z,22.57
2022-07-26T19:02:57.539Z,22.42
2022-07-26T19:06:01.828Z,22.41
2022-07-26T19:09:05.606Z,22.27
2022-07-26T19:12:08.968Z,22.15
2022-07-26T19:15:12.107Z,22.06
2022-07-26T19:18:16.410Z,21.95
2022-07-26T19:21:19.217Z,21.98
2022-07-26T19:24:22.196Z,22.01
2022-07-26T19:27:25.477Z,21.85
2022-07-26T19:30:28.856Z,21.82
2022-07-26T19:33:31.696Z,21.80
2022-07-26T19:36:35.433Z,21.73
2022-07-26T19:39:38.309Z,21.58
2022-07-26T19:42:42.196Z,21.61
2022-07-26T19:45:44.906Z,21.56
2022-07-26T19:48:48.027Z,21.55
2022-07-26T19:51:50.790Z,21.30
2022-07-26T19:54:53.845Z,21.28
2022-07-26T19:57:56.581Z,21.24
2022-07-26T20:00:59.798Z,21.13
2022-07-26T20:04:03.081Z,21.08
2022-07-26T20:07:05.856Z,21.07
2022-07-26T20:10:11.224Z,21.05
2022-07-26T20:13:14.134Z,21.07
2022-07-26T20:16:17.714Z,21.03
2022-07-26T20:19:20.419Z,21.10
2022-07-26T20:22:23.531Z,21.05
2022-07-26T20:25:26.304Z,20.95
2022-07-26T20:28:29.381Z,20.97
2022-07-26T20:31:32.134Z,20.88
2022-07-26T20:34:35.114Z,20.79
2022-07-26T20:37:37.996Z,20.96
2022-07-26T20:40:41.573Z,20.94
2022-07-26T20:43:48.088Z,20.92
2022-07-26T20:46:51.097Z,20.84
2022-07-26T20:49:53.918Z,20.87
2022-07-26T20:53:01.449Z,20.79
2022-07-26T20:56:04.316Z,20.85
2022-07-26T20:59:07.508Z,20.71
2022-07-26T21:02:10.303Z,20.67
2022-07-26T21:05:13.714Z,20.68
2022-07-26T21:08:16.354Z,20.62
2022-07-26T21:11:19.722Z,20.56
2022-07-26T21:14:22.497Z,20.62
2022-07-26T21:17:32.754Z,20.57
2022-07-26T21:20:37.729Z,20.63
2022-07-26T21:23:40.726Z,20.55
2022-07-26T21:26:44.654Z,20.46
2022-07-26T21:29:47.736Z,20.55
2022-07-26T21:32:50.429Z,20.50
2022-07-26T21:35:53.490Z,20.52
2022-07-26T21:38:56.156Z,20.54
2022-07-26T21:41:59.066Z,20.55
2022-07-26T21:45:01.858Z,20.56
2022-07-26T21:48:07.157Z,20.27
2022-07-26T21:51:09.887Z,20.24
2022-07-26T21:54:13.111Z,20.25
2022-07-26T21:57:15.827Z,20.27
2022-07-26T22:00:18.889Z,20.24
2022-07-26T22:03:21.769Z,20.26
2022-07-26T22:06:24.479Z,20.19
2022-07-26T22:09:28.493Z,20.16
2022-07-26T22:12:31.538Z,19.92
2022-07-26T22:15:35.171Z,20.02
2022-07-26T22:18:38.406Z,19.90
2022-07-26T22:21:41.322Z,19.88
2022-07-26T22:24:44.103Z,19.91
2022-07-26T22:27:47.093Z,19.83
2022-07-26T22:30:49.765Z,19.79
2022-07-26T22:33:52.734Z,19.83
2022-07-26T22:36:55.423Z,19.83
2022-07-26T22:39:58.374Z,19.81
2022-07-26T22:43:01.281Z,19.74
2022-07-26T22:46:04.403Z,19.63
2022-07-26T22:49:09.510Z,19.70
2022-07-26T22:52:18.344Z,19.70
2022-07-26T22:55:21.738Z,19.65
2022-07-26T22:58:24.739Z,19.63
2022-07-26T23:01:27.530Z,19.54
2022-07-26T23:04:31.188Z,19.49
2022-07-26T23:07:34.128Z,19.51
2022-07-26T23:10:37.042Z,19.42
2022-07-26T23:13:39.903Z,19.44
2022-07-26T23:16:43.287Z,19.25
2022-07-26T23:19:46.802Z,19.08
2022-07-26T23:22:49.778Z,19.13
2022-07-26T23:25:52.405Z,19.10
2022-07-26T23:28:56.266Z,19.05
2022-07-26T23:31:59.023Z,19.04
2022-07-26T23:35:02.007Z,19.03
2022-07-26T23:38:04.854Z,18.91
2022-07-26T23:41:07.881Z,18.87
2022-07-26T23:44:10.522Z,18.77
2022-07-26T23:47:13.567Z,18.81
2022-07-26T23:50:18.424Z,18.73
2022-07-26T23:53:26.939Z,18.65
2022-07-26T23:56:30.924Z,18.37
2022-07-26T23:59:33.923Z,18.40
